Time;durP1;ratioP1;P1;durP2;ratioP2;P2;SDS_P1;SDS_P2;PMS_P1;PMS_P2;Temp;Humidity;BMP_temperature;BMP_pressure;BME280_temperature;BME280_humidity;BME280_pressure;Samples;Min_cycle;Max_cycle;Signal;HPM_P1;HPM_P2
2023/01/08 00:01:57;;;;;;;80.57;29.92;;;;;;;;;;6249812;28;20050;-72
2023/01/08 00:05:00;;;;;;;75.57;30.88;;;;;;;;;;6248926;28;20054;-71
2023/01/08 00:08:01;;;;;;;75.97;29.48;;;;;;;;;;6248523;28;20264;-72
2023/01/08 00:11:03;;;;;;;81.53;30.98;;;;;;;;;;6246631;28;20054;-69
2023/01/08 00:14:05;;;;;;;72.53;30.00;;;;;;;;;;6249925;28;20237;-74
2023/01/08 00:17:07;;;;;;;80.22;30.05;;;;;;;;;;6248951;28;20049;-72
2023/01/08 00:20:11;;;;;;;84.35;29.88;;;;;;;;;;6246554;28;20049;-74
2023/01/08 00:23:12;;;;;;;89.40;30.67;;;;;;;;;;6250531;28;20191;-73
2023/01/08 00:26:14;;;;;;;80.63;29.70;;;;;;;;;;6248786;28;20058;-74
2023/01/08 00:29:16;;;;;;;83.65;28.77;;;;;;;;;;6245981;28;20042;-73
2023/01/08 00:32:17;;;;;;;88.80;30.42;;;;;;;;;;6243913;28;20053;-75
2023/01/08 00:35:20;;;;;;;80.10;31.17;;;;;;;;;;6244166;28;20057;-73
2023/01/08 00:38:25;;;;;;;81.72;29.52;;;;;;;;;;6245023;28;20053;-74
2023/01/08 00:41:27;;;;;;;86.90;31.10;;;;;;;;;;6246937;28;20061;-74
2023/01/08 00:44:29;;;;;;;84.65;30.50;;;;;;;;;;6246459;28;20053;-74
2023/01/08 00:47:31;;;;;;;81.43;29.90;;;;;;;;;;6248898;28;20091;-73
2023/01/08 00:50:34;;;;;;;80.05;29.88;;;;;;;;;;6245642;28;20054;-73
2023/01/08 00:53:37;;;;;;;86.28;31.67;;;;;;;;;;6245988;28;20064;-73
2023/01/08 00:56:38;;;;;;;82.43;29.75;;;;;;;;;;6247209;28;20053;-74
2023/01/08 00:59:40;;;;;;;84.63;30.88;;;;;;;;;;6247254;28;20143;-74
2023/01/08 01:02:42;;;;;;;77.20;29.33;;;;;;;;;;6245838;28;20045;-74
2023/01/08 01:05:45;;;;;;;80.20;30.92;;;;;;;;;;6250963;28;20305;-72
2023/01/08 01:08:47;;;;;;;80.50;30.65;;;;;;;;;;6245488;28;20104;-73
2023/01/08 01:11:49;;;;;;;87.38;30.95;;;;;;;;;;6246082;28;20059;-72
2023/01/08 01:14:51;;;;;;;83.40;30.98;;;;;;;;;;6247644;28;20071;-73
2023/01/08 01:17:52;;;;;;;84.97;30.05;;;;;;;;;;6246409;28;20053;-74
2023/01/08 01:20:55;;;;;;;84.13;30.88;;;;;;;;;;6244231;28;20241;-74
2023/01/08 01:23:59;;;;;;;79.82;29.77;;;;;;;;;;6246033;28;20296;-71
2023/01/08 01:27:00;;;;;;;74.57;29.25;;;;;;;;;;6246051;28;20045;-73
2023/01/08 01:30:03;;;;;;;67.30;27.70;;;;;;;;;;6245271;28;20061;-71
2023/01/08 01:33:05;;;;;;;63.78;26.00;;;;;;;;;;6245066;28;20053;-73
2023/01/08 01:36:09;;;;;;;63.97;25.73;;;;;;;;;;6248156;28;20053;-73
2023/01/08 01:39:11;;;;;;;65.15;26.60;;;;;;;;;;6245751;28;20057;-73
2023/01/08 01:42:38;;;;;;;57.50;23.23;;;;;;;;;;6245762;28;20050;-72
2023/01/08 01:45:37;;;;;;;58.97;24.30;;;;;;;;;;6248277;28;20048;-71
2023/01/08 01:48:38;;;;;;;53.97;22.40;;;;;;;;;;6242253;28;20049;-73
2023/01/08 01:51:44;;;;;;;56.88;24.45;;;;;;;;;;6251959;28;20073;-74
2023/01/08 01:54:46;;;;;;;62.50;23.77;;;;;;;;;;6244404;28;20038;-72
2023/01/08 01:57:52;;;;;;;54.83;23.70;;;;;;;;;;6249815;28;20045;-73
2023/01/08 02:00:55;;;;;;;56.25;23.02;;;;;;;;;;6243774;28;20056;-74
2023/01/08 02:03:57;;;;;;;54.20;22.17;;;;;;;;;;6248450;28;20284;-73
2023/01/08 02:07:06;;;;;;;61.88;24.13;;;;;;;;;;6247981;28;20330;-73
2023/01/08 02:10:10;;;;;;;65.32;24.70;;;;;;;;;;6242820;28;20111;-73
2023/01/08 02:13:14;;;;;;;64.53;25.17;;;;;;;;;;6246279;28;20336;-73
2023/01/08 02:16:19;;;;;;;69.82;25.73;;;;;;;;;;6246202;28;20045;-73
2023/01/08 02:19:32;;;;;;;62.47;25.00;;;;;;;;;;6245106;28;20315;-77
2023/01/08 02:22:44;;;;;;;73.35;29.42;;;;;;;;;;6244015;28;20053;-75
2023/01/08 02:26:11;;;;;;;80.93;34.88;;;;;;;;;;6244840;28;20088;-77
2023/01/08 02:29:15;;;;;;;68.95;28.15;;;;;;;;;;6245177;28;20057;-76
2023/01/08 02:32:16;;;;;;;63.28;25.60;;;;;;;;;;6243172;28;20058;-74
2023/01/08 02:35:18;;;;;;;61.90;27.38;;;;;;;;;;6246321;28;20064;-74
2023/01/08 02:38:20;;;;;;;62.38;24.88;;;;;;;;;;6247394;28;20060;-73
2023/01/08 02:41:28;;;;;;;68.65;24.42;;;;;;;;;;6246366;28;20325;-73
2023/01/08 02:44:35;;;;;;;59.28;24.95;;;;;;;;;;6247053;28;20104;-73
2023/01/08 02:47:41;;;;;;;64.00;25.00;;;;;;;;;;6245832;28;20315;-73
2023/01/08 02:50:45;;;;;;;66.60;27.50;;;;;;;;;;6246473;28;20065;-73
2023/01/08 02:53:48;;;;;;;68.03;26.60;;;;;;;;;;6242901;28;20049;-73
2023/01/08 02:56:55;;;;;;;56.67;25.10;;;;;;;;;;6251696;28;20100;-73
2023/01/08 02:59:57;;;;;;;62.47;23.95;;;;;;;;;;6249537;28;20053;-74
2023/01/08 03:03:06;;;;;;;59.17;24.63;;;;;;;;;;6247652;28;20056;-75
2023/01/08 03:06:10;;;;;;;60.70;25.80;;;;;;;;;;6245738;28;20096;-73
2023/01/08 03:09:12;;;;;;;59.10;24.63;;;;;;;;;;6246899;28;20049;-74
2023/01/08 03:12:19;;;;;;;63.60;26.83;;;;;;;;;;6247641;28;20336;-73
2023/01/08 03:15:25;;;;;;;73.57;28.05;;;;;;;;;;6251948;28;20061;-73
2023/01/08 03:18:32;;;;;;;80.40;29.70;;;;;;;;;;6249393;28;20069;-73
2023/01/08 03:21:35;;;;;;;75.97;30.33;;;;;;;;;;6246905;28;20057;-73
2023/01/08 03:24:37;;;;;;;82.13;31.98;;;;;;;;;;6249268;28;20060;-73
2023/01/08 03:27:45;;;;;;;79.07;32.15;;;;;;;;;;6247658;28;20115;-73
2023/01/08 03:30:47;;;;;;;86.30;32.38;;;;;;;;;;6245354;28;20057;-73
2023/01/08 03:33:49;;;;;;;81.95;32.72;;;;;;;;;;6251634;28;20139;-73
2023/01/08 03:36:52;;;;;;;84.90;33.53;;;;;;;;;;6251140;28;20325;-73
2023/01/08 03:39:57;;;;;;;90.60;33.53;;;;;;;;;;6249164;28;20057;-74
2023/01/08 03:43:00;;;;;;;71.65;28.27;;;;;;;;;;6248396;28;20245;-76
2023/01/08 03:46:04;;;;;;;79.18;29.60;;;;;;;;;;6246310;28;20117;-73
2023/01/08 03:49:07;;;;;;;69.13;28.52;;;;;;;;;;6245527;28;20072;-73
2023/01/08 03:52:09;;;;;;;72.57;28.83;;;;;;;;;;6246490;28;20119;-73
2023/01/08 03:55:10;;;;;;;61.75;28.20;;;;;;;;;;6246687;28;20061;-73
2023/01/08 03:58:13;;;;;;;71.95;27.48;;;;;;;;;;6248936;28;20111;-73
2023/01/08 04:01:15;;;;;;;64.22;26.42;;;;;;;;;;6247482;28;20230;-73
2023/01/08 04:04:17;;;;;;;73.78;27.70;;;;;;;;;;6249987;28;20135;-73
2023/01/08 04:07:18;;;;;;;67.13;28.20;;;;;;;;;;6251135;28;20049;-73
2023/01/08 04:10:20;;;;;;;66.32;29.63;;;;;;;;;;6247284;28;20053;-74
2023/01/08 04:13:23;;;;;;;72.85;29.33;;;;;;;;;;6247670;28;20057;-71
2023/01/08 04:16:25;;;;;;;79.25;30.05;;;;;;;;;;6247146;28;20053;-73
2023/01/08 04:19:26;;;;;;;72.85;29.58;;;;;;;;;;6248614;28;20068;-71
2023/01/08 04:22:28;;;;;;;73.47;29.15;;;;;;;;;;6246921;28;20053;-73
2023/01/08 04:25:30;;;;;;;74.55;31.13;;;;;;;;;;6250827;28;22296;-73
2023/01/08 04:28:33;;;;;;;75.53;30.45;;;;;;;;;;6246675;28;20041;-73
2023/01/08 04:31:34;;;;;;;77.50;30.38;;;;;;;;;;6249479;28;20346;-72
2023/01/08 04:34:36;;;;;;;79.78;31.00;;;;;;;;;;6247928;28;20060;-70
2023/01/08 04:37:38;;;;;;;74.63;30.63;;;;;;;;;;6246005;28;20131;-73
2023/01/08 04:40:39;;;;;;;73.38;28.55;;;;;;;;;;6245934;28;20045;-73
2023/01/08 04:43:42;;;;;;;70.97;29.20;;;;;;;;;;6247288;28;20058;-73
2023/01/08 04:46:44;;;;;;;74.13;28.65;;;;;;;;;;6246247;28;20049;-73
2023/01/08 04:49:46;;;;;;;75.47;30.30;;;;;;;;;;6248101;28;20053;-73
2023/01/08 04:52:48;;;;;;;76.28;31.50;;;;;;;;;;6248509;28;20057;-73
2023/01/08 04:55:49;;;;;;;72.63;30.52;;;;;;;;;;6248850;28;20064;-74
2023/01/08 04:58:52;;;;;;;77.47;30.05;;;;;;;;;;6248308;28;20222;-73
2023/01/08 05:01:55;;;;;;;82.07;32.13;;;;;;;;;;6246280;28;20329;-73
2023/01/08 05:04:57;;;;;;;76.78;29.90;;;;;;;;;;6250278;28;20057;-74
2023/01/08 05:07:58;;;;;;;79.25;31.35;;;;;;;;;;6247037;28;20060;-73
2023/01/08 05:11:00;;;;;;;74.30;29.10;;;;;;;;;;6245545;28;20174;-73
2023/01/08 05:14:03;;;;;;;73.50;30.50;;;;;;;;;;6245654;28;20052;-74
2023/01/08 05:17:05;;;;;;;75.57;29.38;;;;;;;;;;6244801;28;20064;-73
2023/01/08 05:20:08;;;;;;;67.68;27.92;;;;;;;;;;6246840;28;20099;-73
2023/01/08 05:23:09;;;;;;;71.72;28.35;;;;;;;;;;6247970;28;20053;-72
2023/01/08 05:26:11;;;;;;;75.20;30.02;;;;;;;;;;6247530;28;20718;-70
2023/01/08 05:29:15;;;;;;;76.03;30.50;;;;;;;;;;6247947;28;20345;-74
2023/01/08 05:32:18;;;;;;;71.97;29.33;;;;;;;;;;6245097;28;20348;-73
2023/01/08 05:35:19;;;;;;;72.20;30.00;;;;;;;;;;6247288;28;20289;-73
2023/01/08 05:38:21;;;;;;;76.00;31.67;;;;;;;;;;6247122;28;20045;-74
2023/01/08 05:41:23;;;;;;;75.75;30.50;;;;;;;;;;6243834;28;20054;-74
2023/01/08 05:44:26;;;;;;;72.35;30.15;;;;;;;;;;6244742;28;20440;-73
2023/01/08 05:47:29;;;;;;;73.00;30.45;;;;;;;;;;6246538;28;20053;-73
2023/01/08 05:50:31;;;;;;;68.45;30.13;;;;;;;;;;6246218;28;20333;-73
2023/01/08 05:53:33;;;;;;;72.10;31.08;;;;;;;;;;6245937;28;20304;-73
2023/01/08 05:56:35;;;;;;;67.65;28.27;;;;;;;;;;6245342;28;20079;-73
2023/01/08 05:59:38;;;;;;;72.50;30.02;;;;;;;;;;6247213;28;20376;-74
2023/01/08 06:02:39;;;;;;;72.95;31.17;;;;;;;;;;6244804;28;20053;-73
2023/01/08 06:05:41;;;;;;;70.68;29.10;;;;;;;;;;6246019;28;20045;-73
2023/01/08 06:08:43;;;;;;;73.85;31.08;;;;;;;;;;6248413;28;20096;-72
2023/01/08 06:11:44;;;;;;;71.28;29.90;;;;;;;;;;6243090;28;20053;-74
2023/01/08 06:14:47;;;;;;;65.30;29.00;;;;;;;;;;6244396;28;20054;-74
2023/01/08 06:17:49;;;;;;;77.90;30.48;;;;;;;;;;6245764;28;20357;-72
2023/01/08 06:20:51;;;;;;;64.80;29.25;;;;;;;;;;6244256;28;20068;-74
2023/01/08 06:23:52;;;;;;;65.88;29.25;;;;;;;;;;6247025;28;20057;-74
2023/01/08 06:26:54;;;;;;;67.78;29.42;;;;;;;;;;6244097;28;20054;-73
2023/01/08 06:29:57;;;;;;;70.57;29.05;;;;;;;;;;6248070;28;20352;-72
2023/01/08 06:33:00;;;;;;;69.85;29.58;;;;;;;;;;6243306;28;20096;-74
2023/01/08 06:36:03;;;;;;;63.28;28.85;;;;;;;;;;6244317;28;20053;-73
2023/01/08 06:39:05;;;;;;;68.30;30.08;;;;;;;;;;6246525;28;20053;-74
2023/01/08 06:42:07;;;;;;;68.95;28.75;;;;;;;;;;6243556;28;20051;-74
2023/01/08 06:45:11;;;;;;;59.33;27.05;;;;;;;;;;6248227;28;20057;-74
2023/01/08 06:48:13;;;;;;;63.85;28.65;;;;;;;;;;6246952;28;20368;-74
2023/01/08 06:51:14;;;;;;;63.85;29.27;;;;;;;;;;6252948;28;20052;-74
2023/01/08 06:54:16;;;;;;;61.08;27.35;;;;;;;;;;6249244;28;20269;-75
2023/01/08 06:57:18;;;;;;;64.25;28.48;;;;;;;;;;6252223;28;20057;-74
2023/01/08 07:00:22;;;;;;;62.58;28.50;;;;;;;;;;6249906;28;20058;-74
2023/01/08 07:03:24;;;;;;;68.78;27.80;;;;;;;;;;6250141;28;20232;-73
2023/01/08 07:06:26;;;;;;;65.57;29.00;;;;;;;;;;6248503;28;20112;-74
2023/01/08 07:09:27;;;;;;;63.65;28.38;;;;;;;;;;6250518;28;20049;-72
2023/01/08 07:12:29;;;;;;;61.40;26.83;;;;;;;;;;6250676;28;20064;-76
2023/01/08 07:15:32;;;;;;;66.63;27.13;;;;;;;;;;6247414;28;20114;-73
2023/01/08 07:18:34;;;;;;;66.43;28.02;;;;;;;;;;6242069;28;20326;-74
2023/01/08 07:21:36;;;;;;;62.83;27.90;;;;;;;;;;6252647;28;20230;-73
2023/01/08 07:24:38;;;;;;;63.33;27.60;;;;;;;;;;6251606;28;20060;-76
2023/01/08 07:27:39;;;;;;;58.13;26.70;;;;;;;;;;6250202;28;20337;-73
2023/01/08 07:30:43;;;;;;;56.67;25.27;;;;;;;;;;6251744;28;20057;-74
2023/01/08 07:33:45;;;;;;;56.83;25.63;;;;;;;;;;6251027;28;20100;-71
2023/01/08 07:36:47;;;;;;;54.30;24.30;;;;;;;;;;6249335;28;20053;-71
2023/01/08 07:39:48;;;;;;;55.33;25.23;;;;;;;;;;6252227;28;20048;-70
2023/01/08 07:42:57;;;;;;;48.55;23.48;;;;;;;;;;6249798;28;20049;-73
2023/01/08 07:46:01;;;;;;;44.80;22.60;;;;;;;;;;6249744;28;20061;-74
2023/01/08 07:49:04;;;;;;;;;;;;;;;;;;6248258;28;20045;-73
2023/01/08 07:52:05;;;;;;;51.08;23.05;;;;;;;;;;6245067;28;19925;-71
2023/01/08 07:55:07;;;;;;;50.45;25.80;;;;;;;;;;6251611;28;20317;-74
2023/01/08 07:58:10;;;;;;;50.45;24.05;;;;;;;;;;6249758;28;20057;-74
2023/01/08 08:01:14;;;;;;;52.90;26.67;;;;;;;;;;6245455;28;20065;-74
2023/01/08 08:04:15;;;;;;;52.78;25.75;;;;;;;;;;6248459;28;20130;-73
2023/01/08 08:07:17;;;;;;;50.28;24.90;;;;;;;;;;6249169;28;20060;-74
2023/01/08 08:10:19;;;;;;;55.28;25.88;;;;;;;;;;6246638;28;20054;-74
2023/01/08 08:13:20;;;;;;;51.58;25.70;;;;;;;;;;6246963;28;20147;-74
2023/01/08 08:16:24;;;;;;;53.53;26.23;;;;;;;;;;6244059;28;20045;-72
2023/01/08 08:19:25;;;;;;;50.07;25.67;;;;;;;;;;6246729;28;20049;-69
2023/01/08 08:22:27;;;;;;;56.58;27.17;;;;;;;;;;6246688;28;20237;-73
2023/01/08 08:25:29;;;;;;;54.13;26.25;;;;;;;;;;6249496;28;20788;-73
2023/01/08 08:28:30;;;;;;;57.22;26.85;;;;;;;;;;6245717;28;20049;-73
2023/01/08 08:31:34;;;;;;;54.50;27.50;;;;;;;;;;6249897;28;20057;-73
2023/01/08 08:34:35;;;;;;;54.40;26.60;;;;;;;;;;6247252;28;20053;-72
2023/01/08 08:37:37;;;;;;;51.88;25.80;;;;;;;;;;6245953;28;20050;-73
2023/01/08 08:40:39;;;;;;;57.95;27.50;;;;;;;;;;6245874;28;20236;-71
2023/01/08 08:43:40;;;;;;;51.42;25.48;;;;;;;;;;6246619;28;20053;-73
2023/01/08 08:46:43;;;;;;;58.92;28.08;;;;;;;;;;6246463;28;20053;-70
2023/01/08 08:49:45;;;;;;;55.13;26.75;;;;;;;;;;6248309;28;20329;-71
2023/01/08 08:52:47;;;;;;;55.75;26.77;;;;;;;;;;6245061;28;20041;-72
2023/01/08 08:55:49;;;;;;;57.70;27.30;;;;;;;;;;6243089;28;20053;-70
2023/01/08 08:58:51;;;;;;;62.70;28.70;;;;;;;;;;6249071;28;20050;-69
2023/01/08 09:01:54;;;;;;;59.50;29.00;;;;;;;;;;6247921;28;20348;-71
2023/01/08 09:04:56;;;;;;;70.00;29.52;;;;;;;;;;6248352;28;20053;-71
2023/01/08 09:07:58;;;;;;;64.40;29.83;;;;;;;;;;6249216;28;20057;-71
2023/01/08 09:10:59;;;;;;;72.30;31.13;;;;;;;;;;6245681;28;20069;-72
2023/01/08 09:14:01;;;;;;;72.55;32.45;;;;;;;;;;6248109;28;20100;-70
2023/01/08 09:17:04;;;;;;;74.63;32.80;;;;;;;;;;6248465;28;20058;-71
2023/01/08 09:20:07;;;;;;;72.78;33.28;;;;;;;;;;6247446;28;20064;-71
2023/01/08 09:23:09;;;;;;;68.95;32.40;;;;;;;;;;6250979;28;20066;-70
2023/01/08 09:26:11;;;;;;;68.43;33.15;;;;;;;;;;6245837;28;20045;-73
2023/01/08 09:29:13;;;;;;;59.60;29.20;;;;;;;;;;6248353;28;20045;-72
2023/01/08 09:32:16;;;;;;;67.72;33.40;;;;;;;;;;6249587;28;20132;-72
2023/01/08 09:35:17;;;;;;;63.33;32.20;;;;;;;;;;6248838;28;20064;-73
2023/01/08 09:38:19;;;;;;;64.32;31.65;;;;;;;;;;6247158;28;20100;-71
2023/01/08 09:41:24;;;;;;;61.75;31.38;;;;;;;;;;6246316;28;20056;-71
2023/01/08 09:44:28;;;;;;;63.83;31.15;;;;;;;;;;6247278;28;20789;-73
2023/01/08 09:47:34;;;;;;;60.13;30.25;;;;;;;;;;6247792;28;20131;-72
2023/01/08 09:50:36;;;;;;;68.10;33.53;;;;;;;;;;6242601;28;20060;-72
2023/01/08 09:53:38;;;;;;;67.13;32.50;;;;;;;;;;6245063;28;20057;-72
2023/01/08 09:56:39;;;;;;;65.78;32.33;;;;;;;;;;6246918;28;20053;-74
2023/01/08 09:59:41;;;;;;;59.05;30.00;;;;;;;;;;6247696;28;20096;-72
2023/01/08 10:02:45;;;;;;;65.00;30.88;;;;;;;;;;6246837;28;20338;-72
2023/01/08 10:05:46;;;;;;;66.45;33.53;;;;;;;;;;6247835;28;20049;-73
2023/01/08 10:08:49;;;;;;;66.60;31.13;;;;;;;;;;6243680;28;20446;-73
2023/01/08 10:11:51;;;;;;;58.90;30.15;;;;;;;;;;6247946;28;20056;-73
2023/01/08 10:14:54;;;;;;;64.35;30.65;;;;;;;;;;6243864;28;20053;-74
2023/01/08 10:18:01;;;;;;;62.10;30.95;;;;;;;;;;6247141;28;20053;-72
2023/01/08 10:21:04;;;;;;;59.38;28.67;;;;;;;;;;6242176;28;20058;-72
2023/01/08 10:24:06;;;;;;;61.00;29.67;;;;;;;;;;6245269;28;20221;-73
2023/01/08 10:27:11;;;;;;;60.10;29.52;;;;;;;;;;6245657;28;20094;-72
2023/01/08 10:30:15;;;;;;;;;;;;;;;;;;6245417;28;20237;-72
2023/01/08 10:33:21;;;;;;;50.47;27.10;;;;;;;;;;6246087;28;19968;-73
2023/01/08 10:36:26;;;;;;;56.58;27.55;;;;;;;;;;6245825;28;20053;-73
2023/01/08 10:39:29;;;;;;;56.33;27.00;;;;;;;;;;6245952;28;21257;-72
2023/01/08 10:42:34;;;;;;;60.55;27.65;;;;;;;;;;6245163;28;20091;-72
2023/01/08 10:45:36;;;;;;;63.85;26.60;;;;;;;;;;6247091;28;20321;-72
2023/01/08 10:48:40;;;;;;;50.50;24.38;;;;;;;;;;6244123;28;20056;-71
2023/01/08 10:51:49;;;;;;;49.33;25.08;;;;;;;;;;6247569;28;20061;-71
2023/01/08 10:54:50;;;;;;;44.60;24.88;;;;;;;;;;6243608;28;20050;-72
2023/01/08 10:57:54;;;;;;;49.30;26.00;;;;;;;;;;6246926;28;20100;-73
2023/01/08 11:01:08;;;;;;;48.80;25.23;;;;;;;;;;6245779;28;20095;-74
2023/01/08 11:04:23;;;;;;;44.83;25.20;;;;;;;;;;6245502;28;20046;-74
2023/01/08 11:07:25;;;;;;;47.40;24.88;;;;;;;;;;6243927;28;20245;-71
2023/01/08 11:10:28;;;;;;;47.00;24.58;;;;;;;;;;6244929;28;20046;-74
2023/01/08 11:13:30;;;;;;;45.85;22.98;;;;;;;;;;6243596;28;20068;-74
2023/01/08 11:16:33;;;;;;;41.35;22.63;;;;;;;;;;6246280;28;20049;-73
2023/01/08 11:19:38;;;;;;;43.10;22.77;;;;;;;;;;6246146;28;20229;-74
2023/01/08 11:22:40;;;;;;;39.63;20.80;;;;;;;;;;6243956;28;20450;-74
2023/01/08 11:25:43;;;;;;;39.05;21.92;;;;;;;;;;6245861;28;20045;-74
2023/01/08 11:28:51;;;;;;;41.45;22.75;;;;;;;;;;6246208;28;20069;-72
2023/01/08 11:31:57;;;;;;;42.25;23.20;;;;;;;;;;6251057;28;20061;-74
2023/01/08 11:35:03;;;;;;;43.75;23.00;;;;;;;;;;6250069;28;20120;-74
2023/01/08 11:38:07;;;;;;;42.15;23.40;;;;;;;;;;6250319;28;20053;-74
2023/01/08 11:41:18;;;;;;;48.63;23.67;;;;;;;;;;6248979;28;20156;-74
2023/01/08 11:44:30;;;;;;;42.42;22.98;;;;;;;;;;6248673;28;20058;-74
2023/01/08 11:47:46;;;;;;;41.97;23.15;;;;;;;;;;6249105;28;20064;-77
2023/01/08 11:51:00;;;;;;;43.15;24.40;;;;;;;;;;6251074;28;20241;-74
2023/01/08 11:54:06;;;;;;;46.78;24.30;;;;;;;;;;6250645;28;20112;-75
2023/01/08 11:57:17;;;;;;;46.25;24.30;;;;;;;;;;6249210;28;20087;-76
2023/01/08 12:00:45;;;;;;;51.90;26.25;;;;;;;;;;6247372;28;20057;-74
2023/01/08 12:03:50;;;;;;;53.95;27.02;;;;;;;;;;6248087;28;20280;-76
2023/01/08 12:06:58;;;;;;;52.03;27.65;;;;;;;;;;6249224;28;20041;-74
2023/01/08 12:10:04;;;;;;;59.22;28.05;;;;;;;;;;6251535;28;20057;-77
2023/01/08 12:13:15;;;;;;;55.92;28.42;;;;;;;;;;6247622;28;20132;-73
2023/01/08 12:16:31;;;;;;;54.53;27.83;;;;;;;;;;6249650;28;20305;-73
2023/01/08 12:19:44;;;;;;;55.55;26.40;;;;;;;;;;6248850;28;20058;-70
2023/01/08 12:22:54;;;;;;;59.78;28.20;;;;;;;;;;6245477;28;20244;-70
2023/01/08 12:26:16;;;;;;;51.22;26.52;;;;;;;;;;6245609;28;20060;-75
2023/01/08 12:29:33;;;;;;;52.38;25.50;;;;;;;;;;6249084;28;20033;-75
2023/01/08 12:32:36;;;;;;;47.97;26.58;;;;;;;;;;6245408;28;20049;-72
2023/01/08 12:35:41;;;;;;;49.97;25.33;;;;;;;;;;6246318;28;20050;-73
2023/01/08 12:38:45;;;;;;;;;;;;;;;;;;6251321;28;20051;-79
2023/01/08 12:41:48;;;;;;;44.92;22.40;;;;;;;;;;6251440;28;19962;-70
2023/01/08 12:44:51;;;;;;;52.35;24.08;;;;;;;;;;6248400;28;20053;-74
2023/01/08 12:47:55;;;;;;;47.58;23.80;;;;;;;;;;6250191;28;20111;-74
2023/01/08 12:51:01;;;;;;;44.63;23.45;;;;;;;;;;6248920;28;20317;-74
2023/01/08 12:54:09;;;;;;;46.25;22.35;;;;;;;;;;6248282;28;20598;-74
2023/01/08 12:57:14;;;;;;;45.80;23.08;;;;;;;;;;6248768;28;20058;-76
2023/01/08 13:00:21;;;;;;;45.90;22.90;;;;;;;;;;6248838;28;20057;-73
2023/01/08 13:03:25;;;;;;;44.95;24.08;;;;;;;;;;6248071;28;20233;-71
2023/01/08 13:06:27;;;;;;;45.50;23.88;;;;;;;;;;6247893;28;20079;-73
2023/01/08 13:09:31;;;;;;;45.05;22.55;;;;;;;;;;6249246;28;20376;-72
2023/01/08 13:12:34;;;;;;;40.70;22.10;;;;;;;;;;6250130;28;20057;-73
2023/01/08 13:15:36;;;;;;;43.88;22.10;;;;;;;;;;6251036;28;20472;-75
2023/01/08 13:18:38;;;;;;;40.60;20.75;;;;;;;;;;6249011;28;20045;-73
2023/01/08 13:21:43;;;;;;;42.97;21.50;;;;;;;;;;6247447;28;20041;-71
2023/01/08 13:24:46;;;;;;;41.63;21.88;;;;;;;;;;6245028;28;20054;-72
2023/01/08 13:27:48;;;;;;;36.45;20.88;;;;;;;;;;6248299;28;20507;-74
2023/01/08 13:30:50;;;;;;;35.53;20.70;;;;;;;;;;6250017;28;20054;-73
2023/01/08 13:33:52;;;;;;;39.50;21.20;;;;;;;;;;6246203;28;20308;-75
2023/01/08 13:36:57;;;;;;;38.35;20.80;;;;;;;;;;6243497;28;20045;-76
2023/01/08 13:40:00;;;;;;;36.17;20.83;;;;;;;;;;6250689;28;20067;-76
2023/01/08 13:43:02;;;;;;;37.38;20.25;;;;;;;;;;6247145;28;20105;-72
2023/01/08 13:46:14;;;;;;;38.28;20.20;;;;;;;;;;6246910;28;20128;-74
2023/01/08 13:49:24;;;;;;;35.45;20.33;;;;;;;;;;6245054;28;20084;-76
2023/01/08 13:52:39;;;;;;;35.65;19.25;;;;;;;;;;6245142;28;20083;-76
2023/01/08 13:55:43;;;;;;;33.85;18.55;;;;;;;;;;6245169;28;20050;-73
2023/01/08 13:58:51;;;;;;;39.03;19.25;;;;;;;;;;6247663;28;20061;-76
2023/01/08 14:01:53;;;;;;;33.97;18.88;;;;;;;;;;6244421;28;20061;-77
2023/01/08 14:04:55;;;;;;;31.90;17.33;;;;;;;;;;6246590;28;20054;-77
2023/01/08 14:07:57;;;;;;;32.40;19.00;;;;;;;;;;6246694;28;20045;-72
2023/01/08 14:11:00;;;;;;;32.55;18.13;;;;;;;;;;6245273;28;20041;-77
2023/01/08 14:14:03;;;;;;;33.47;17.05;;;;;;;;;;6245645;28;20053;-70
2023/01/08 14:17:04;;;;;;;28.25;16.83;;;;;;;;;;6243398;28;20672;-77
2023/01/08 14:20:11;;;;;;;26.60;16.45;;;;;;;;;;6242988;28;20053;-76
2023/01/08 14:23:17;;;;;;;27.98;16.67;;;;;;;;;;6244809;28;20049;-76
2023/01/08 14:26:28;;;;;;;27.58;16.60;;;;;;;;;;6246058;28;20064;-75
2023/01/08 14:29:33;;;;;;;27.60;15.60;;;;;;;;;;6243666;28;20053;-83
2023/01/08 14:32:34;;;;;;;22.45;14.48;;;;;;;;;;6242574;28;20049;-75
2023/01/08 14:35:36;;;;;;;24.45;14.38;;;;;;;;;;6245290;28;20064;-76
2023/01/08 14:38:38;;;;;;;26.83;15.82;;;;;;;;;;6244191;28;20095;-74
2023/01/08 14:45:04;;;;;;;27.30;15.55;;;;;;;;;;6245136;28;20053;-77
2023/01/08 14:48:09;;;;;;;;;;;;;;;;;;6245569;28;20053;-73
2023/01/08 14:51:15;;;;;;;17.80;12.02;;;;;;;;;;6246874;28;19917;-71
2023/01/08 14:54:20;;;;;;;17.08;12.40;;;;;;;;;;6245326;28;20229;-77
2023/01/08 14:57:23;;;;;;;17.00;12.02;;;;;;;;;;6243091;28;20079;-77
2023/01/08 15:00:27;;;;;;;18.95;12.55;;;;;;;;;;6241940;28;20049;-76
2023/01/08 15:03:31;;;;;;;17.67;11.98;;;;;;;;;;6247857;28;20076;-77
2023/01/08 15:06:33;;;;;;;;;;;;;;;;;;6249887;28;20056;-78
2023/01/08 15:09:35;;;;;;;21.02;12.23;;;;;;;;;;6251350;28;19917;-78
2023/01/08 15:12:38;;;;;;;16.73;11.70;;;;;;;;;;6249306;28;20061;-77
2023/01/08 15:15:54;;;;;;;17.08;11.10;;;;;;;;;;6246865;28;20061;-78
2023/01/08 15:19:01;;;;;;;16.02;11.25;;;;;;;;;;6250169;28;20128;-81
2023/01/08 15:22:03;;;;;;;17.50;11.68;;;;;;;;;;6249275;28;21107;-72
2023/01/08 15:25:07;;;;;;;16.63;10.80;;;;;;;;;;6247565;28;20059;-72
2023/01/08 15:28:14;;;;;;;15.95;10.82;;;;;;;;;;6246704;28;20293;-72
2023/01/08 15:31:27;;;;;;;19.75;10.73;;;;;;;;;;6248265;28;20153;-70
2023/01/08 15:34:29;;;;;;;16.02;10.23;;;;;;;;;;6245916;28;20049;-73
2023/01/08 15:37:30;;;;;;;28.38;11.65;;;;;;;;;;6244076;28;20061;-78
2023/01/08 15:40:33;;;;;;;19.38;10.52;;;;;;;;;;6247251;28;20053;-78
2023/01/08 15:43:36;;;;;;;14.73;10.27;;;;;;;;;;6250164;28;20108;-77
2023/01/08 15:46:37;;;;;;;16.27;10.60;;;;;;;;;;6247462;28;20060;-77
2023/01/08 15:49:39;;;;;;;16.75;10.50;;;;;;;;;;6247729;28;20058;-77
2023/01/08 15:52:42;;;;;;;16.05;10.98;;;;;;;;;;6247964;28;20052;-77
2023/01/08 15:55:45;;;;;;;17.33;10.82;;;;;;;;;;6249365;28;20056;-72
2023/01/08 15:58:48;;;;;;;16.05;10.32;;;;;;;;;;6249141;28;20052;-74
2023/01/08 16:01:50;;;;;;;15.20;9.70;;;;;;;;;;6247027;28;20067;-73
2023/01/08 16:04:51;;;;;;;17.38;9.80;;;;;;;;;;6248564;28;20272;-75
2023/01/08 16:07:53;;;;;;;20.88;10.68;;;;;;;;;;6250546;28;20395;-73
2023/01/08 16:10:55;;;;;;;15.23;10.48;;;;;;;;;;6248033;28;20806;-76
2023/01/08 16:13:58;;;;;;;17.10;10.63;;;;;;;;;;6249267;28;20149;-74
2023/01/08 16:17:01;;;;;;;16.58;10.40;;;;;;;;;;6245710;28;20061;-76
2023/01/08 16:20:03;;;;;;;15.95;9.55;;;;;;;;;;6247761;28;20568;-77
2023/01/08 16:23:04;;;;;;;16.08;10.75;;;;;;;;;;6247351;28;20369;-79
2023/01/08 16:26:06;;;;;;;16.08;10.95;;;;;;;;;;6247641;28;20527;-78
2023/01/08 16:29:09;;;;;;;14.48;10.30;;;;;;;;;;6250861;28;20045;-78
2023/01/08 16:32:11;;;;;;;17.92;11.48;;;;;;;;;;6246339;28;20049;-78
2023/01/08 16:35:13;;;;;;;13.48;10.27;;;;;;;;;;6249679;28;20061;-80
2023/01/08 16:38:14;;;;;;;17.77;11.80;;;;;;;;;;6249866;28;20071;-79
2023/01/08 16:41:16;;;;;;;18.42;12.10;;;;;;;;;;6244595;28;20064;-76
2023/01/08 16:44:21;;;;;;;24.15;12.20;;;;;;;;;;6248355;28;20045;-76
2023/01/08 16:47:22;;;;;;;20.80;12.82;;;;;;;;;;6244921;28;20136;-75
2023/01/08 16:50:24;;;;;;;19.30;12.70;;;;;;;;;;6248905;28;20053;-77
2023/01/08 16:53:26;;;;;;;20.90;12.93;;;;;;;;;;6249072;28;20114;-76
2023/01/08 16:56:28;;;;;;;20.88;13.55;;;;;;;;;;6247417;28;20058;-76
2023/01/08 16:59:32;;;;;;;18.83;13.05;;;;;;;;;;6247974;28;20117;-72
2023/01/08 17:02:33;;;;;;;21.38;13.55;;;;;;;;;;6243590;28;20060;-77
2023/01/08 17:05:36;;;;;;;21.42;13.73;;;;;;;;;;6247059;28;20060;-77
2023/01/08 17:08:38;;;;;;;20.85;13.68;;;;;;;;;;6247080;28;20333;-77
2023/01/08 17:11:40;;;;;;;19.95;13.57;;;;;;;;;;6245667;28;20059;-74
2023/01/08 17:14:44;;;;;;;18.95;12.80;;;;;;;;;;6245441;28;20053;-83
2023/01/08 17:17:46;;;;;;;58.03;30.92;;;;;;;;;;6249200;28;20117;-75
2023/01/08 17:20:54;;;;;;;94.18;48.17;;;;;;;;;;6248186;28;20101;-79
2023/01/08 17:23:56;;;;;;;76.95;38.47;;;;;;;;;;6249255;28;20050;-75
2023/01/08 17:26:58;;;;;;;43.60;24.40;;;;;;;;;;6247189;28;20049;-78
2023/01/08 17:30:01;;;;;;;82.93;40.65;;;;;;;;;;6247221;28;20337;-81
2023/01/08 17:33:02;;;;;;;38.08;21.77;;;;;;;;;;6250758;28;20098;-76
2023/01/08 17:36:10;;;;;;;21.83;14.80;;;;;;;;;;6247074;28;20065;-76
2023/01/08 17:39:12;;;;;;;21.70;13.73;;;;;;;;;;6249211;28;20060;-75
2023/01/08 17:42:26;;;;;;;24.08;14.70;;;;;;;;;;6246662;28;20045;-75
2023/01/08 17:45:29;;;;;;;;;;;;;;;;;;6246182;28;20076;-69
2023/01/08 17:48:31;;;;;;;20.67;13.35;;;;;;;;;;6246404;28;19917;-76
2023/01/08 17:51:32;;;;;;;22.65;14.50;;;;;;;;;;6248949;28;20367;-76
2023/01/08 17:54:35;;;;;;;26.75;15.27;;;;;;;;;;6245356;28;20052;-73